sensor_id;sensor_type;location;lat;lon;timestamp;P1;P2;P0
57563;PMS7003;43400;45.926;6.724;2022-11-12T00:00:20;14.00;13.67;10.33
57563;PMS7003;43400;45.926;6.724;2022-11-12T00:02:51;18.50;16.75;11.00
57563;PMS7003;43400;45.926;6.724;2022-11-12T00:05:23;13.75;13.75;10.00
57563;PMS7003;43400;45.926;6.724;2022-11-12T00:07:55;13.00;13.00;10.00
57563;PMS7003;43400;45.926;6.724;2022-11-12T00:10:26;13.00;10.00;9.00
57563;PMS7003;43400;45.926;6.724;2022-11-12T00:12:58;10.75;10.75;8.50
57563;PMS7003;43400;45.926;6.724;2022-11-12T00:15:30;23.00;23.00;17.00
57563;PMS7003;43400;45.926;6.724;2022-11-12T00:18:02;17.75;17.75;13.75
57563;PMS7003;43400;45.926;6.724;2022-11-12T00:20:34;25.20;24.00;17.00
57563;PMS7003;43400;45.926;6.724;2022-11-12T00:23:06;25.50;24.00;20.00
57563;PMS7003;43400;45.926;6.724;2022-11-12T00:25:39;18.80;18.80;13.20
57563;PMS7003;43400;45.926;6.724;2022-11-12T00:28:12;14.20;13.80;11.80
57563;PMS7003;43400;45.926;6.724;2022-11-12T00:30:45;15.40;14.60;12.60
57563;PMS7003;43400;45.926;6.724;2022-11-12T00:33:17;19.50;19.00;13.75
57563;PMS7003;43400;45.926;6.724;2022-11-12T00:35:49;23.75;22.50;19.00
57563;PMS7003;43400;45.926;6.724;2022-11-12T00:38:21;19.00;19.00;15.50
57563;PMS7003;43400;45.926;6.724;2022-11-12T00:40:53;17.25;15.50;11.00
57563;PMS7003;43400;45.926;6.724;2022-11-12T00:43:28;17.75;16.50;11.50
57563;PMS7003;43400;45.926;6.724;2022-11-12T00:46:00;25.20;23.60;17.60
57563;PMS7003;43400;45.926;6.724;2022-11-12T00:48:32;27.25;24.50;18.00
57563;PMS7003;43400;45.926;6.724;2022-11-12T00:51:04;27.75;26.00;20.00
57563;PMS7003;43400;45.926;6.724;2022-11-12T00:53:36;29.20;27.60;21.00
57563;PMS7003;43400;45.926;6.724;2022-11-12T00:56:08;26.00;26.00;19.00
57563;PMS7003;43400;45.926;6.724;2022-11-12T00:58:39;26.50;25.00;21.00
57563;PMS7003;43400;45.926;6.724;2022-11-12T01:01:12;19.00;19.00;14.00
57563;PMS7003;43400;45.926;6.724;2022-11-12T01:03:45;17.00;15.40;11.80
57563;PMS7003;43400;45.926;6.724;2022-11-12T01:06:18;18.00;17.60;13.60
57563;PMS7003;43400;45.926;6.724;2022-11-12T01:08:53;24.75;24.50;18.25
57563;PMS7003;43400;45.926;6.724;2022-11-12T01:11:26;23.75;22.50;18.00
57563;PMS7003;43400;45.926;6.724;2022-11-12T01:16:35;45.25;42.25;30.00
57563;PMS7003;43400;45.926;6.724;2022-11-12T01:19:09;50.00;42.00;29.50
57563;PMS7003;43400;45.926;6.724;2022-11-12T01:21:42;39.20;37.60;26.00
57563;PMS7003;43400;45.926;6.724;2022-11-12T01:24:14;34.50;32.00;24.00
57563;PMS7003;43400;45.926;6.724;2022-11-12T01:26:46;33.50;31.75;23.00
57563;PMS7003;43400;45.926;6.724;2022-11-12T01:29:18;30.40;29.80;21.00
57563;PMS7003;43400;45.926;6.724;2022-11-12T01:31:49;29.00;27.50;19.50
57563;PMS7003;43400;45.926;6.724;2022-11-12T01:34:21;29.80;29.00;19.00
57563;PMS7003;43400;45.926;6.724;2022-11-12T01:36:52;23.40;22.00;18.00
57563;PMS7003;43400;45.926;6.724;2022-11-12T01:39:24;23.00;22.50;18.25
57563;PMS7003;43400;45.926;6.724;2022-11-12T01:41:55;25.75;24.50;17.25
57563;PMS7003;43400;45.926;6.724;2022-11-12T01:44:29;18.00;18.00;13.25
57563;PMS7003;43400;45.926;6.724;2022-11-12T01:47:03;18.00;18.00;14.00
57563;PMS7003;43400;45.926;6.724;2022-11-12T01:49:52;18.00;17.25;13.50
57563;PMS7003;43400;45.926;6.724;2022-11-12T01:52:35;15.00;14.60;12.20
57563;PMS7003;43400;45.926;6.724;2022-11-12T01:55:18;17.60;17.00;13.00
57563;PMS7003;43400;45.926;6.724;2022-11-12T01:57:57;14.33;14.33;11.00
57563;PMS7003;43400;45.926;6.724;2022-11-12T02:00:43;11.50;11.50;9.25
57563;PMS7003;43400;45.926;6.724;2022-11-12T02:03:20;10.00;10.00;7.50
57563;PMS7003;43400;45.926;6.724;2022-11-12T02:05:58;11.00;10.40;7.00
57563;PMS7003;43400;45.926;6.724;2022-11-12T02:08:33;10.00;10.00;9.00
57563;PMS7003;43400;45.926;6.724;2022-11-12T02:11:12;10.80;10.20;8.20
57563;PMS7003;43400;45.926;6.724;2022-11-12T02:13:46;13.00;11.00;7.50
57563;PMS7003;43400;45.926;6.724;2022-11-12T02:16:19;9.20;9.20;7.00
57563;PMS7003;43400;45.926;6.724;2022-11-12T02:18:51;7.00;7.00;6.00
57563;PMS7003;43400;45.926;6.724;2022-11-12T02:21:23;7.00;6.50;5.50
57563;PMS7003;43400;45.926;6.724;2022-11-12T02:24:00;7.00;6.60;6.00
57563;PMS7003;43400;45.926;6.724;2022-11-12T02:26:45;6.00;6.00;6.00
57563;PMS7003;43400;45.926;6.724;2022-11-12T02:29:20;7.00;7.00;7.00
57563;PMS7003;43400;45.926;6.724;2022-11-12T02:31:52;7.00;6.00;5.80
57563;PMS7003;43400;45.926;6.724;2022-11-12T02:34:23;6.25;6.00;5.00
57563;PMS7003;43400;45.926;6.724;2022-11-12T02:36:54;5.00;5.00;3.00
57563;PMS7003;43400;45.926;6.724;2022-11-12T02:39:26;5.00;3.00;2.00
57563;PMS7003;43400;45.926;6.724;2022-11-12T02:41:57;4.75;4.75;4.25
57563;PMS7003;43400;45.926;6.724;2022-11-12T02:44:29;7.00;6.67;6.00
57563;PMS7003;43400;45.926;6.724;2022-11-12T02:47:01;14.00;14.00;10.80
57563;PMS7003;43400;45.926;6.724;2022-11-12T02:49:33;13.60;13.60;11.00
57563;PMS7003;43400;45.926;6.724;2022-11-12T02:52:04;10.00;9.50;7.00
57563;PMS7003;43400;45.926;6.724;2022-11-12T02:54:36;5.25;5.25;4.50
57563;PMS7003;43400;45.926;6.724;2022-11-12T02:57:07;5.00;5.00;4.00
57563;PMS7003;43400;45.926;6.724;2022-11-12T02:59:39;2.20;2.20;2.00
57563;PMS7003;43400;45.926;6.724;2022-11-12T03:02:10;3.00;3.00;2.00
57563;PMS7003;43400;45.926;6.724;2022-11-12T03:04:42;2.25;2.25;2.25
57563;PMS7003;43400;45.926;6.724;2022-11-12T03:07:13;2.25;2.25;2.00
57563;PMS7003;43400;45.926;6.724;2022-11-12T03:09:45;4.60;3.00;2.00
57563;PMS7003;43400;45.926;6.724;2022-11-12T03:12:16;5.00;4.00;3.00
57563;PMS7003;43400;45.926;6.724;2022-11-12T03:14:48;2.00;2.00;2.00
57563;PMS7003;43400;45.926;6.724;2022-11-12T03:17:20;4.60;3.00;2.80
57563;PMS7003;43400;45.926;6.724;2022-11-12T03:19:51;3.00;3.00;2.00
57563;PMS7003;43400;45.926;6.724;2022-11-12T03:22:23;2.00;2.00;1.20
57563;PMS7003;43400;45.926;6.724;2022-11-12T03:24:54;3.00;3.00;2.80
57563;PMS7003;43400;45.926;6.724;2022-11-12T03:27:26;4.50;4.50;3.00
57563;PMS7003;43400;45.926;6.724;2022-11-12T03:29:57;5.00;5.00;3.00
57563;PMS7003;43400;45.926;6.724;2022-11-12T03:32:29;2.00;2.00;2.00
57563;PMS7003;43400;45.926;6.724;2022-11-12T03:35:00;3.00;3.00;3.00
57563;PMS7003;43400;45.926;6.724;2022-11-12T03:37:32;5.00;5.00;3.00
57563;PMS7003;43400;45.926;6.724;2022-11-12T03:40:03;5.00;5.00;3.50
57563;PMS7003;43400;45.926;6.724;2022-11-12T03:42:35;5.00;4.20;3.00
57563;PMS7003;43400;45.926;6.724;2022-11-12T03:45:07;3.50;3.50;3.00
57563;PMS7003;43400;45.926;6.724;2022-11-12T03:47:40;5.00;5.00;3.00
57563;PMS7003;43400;45.926;6.724;2022-11-12T03:50:16;3.00;3.00;2.60
57563;PMS7003;43400;45.926;6.724;2022-11-12T03:52:51;5.00;5.00;3.00
57563;PMS7003;43400;45.926;6.724;2022-11-12T03:55:26;5.00;5.00;3.00
57563;PMS7003;43400;45.926;6.724;2022-11-12T03:57:59;6.80;6.00;5.00
57563;PMS7003;43400;45.926;6.724;2022-11-12T04:00:30;6.25;5.75;4.50
57563;PMS7003;43400;45.926;6.724;2022-11-12T04:03:02;6.00;5.00;3.00
57563;PMS7003;43400;45.926;6.724;2022-11-12T04:05:33;5.00;5.00;3.50
57563;PMS7003;43400;45.926;6.724;2022-11-12T04:08:06;5.00;5.00;5.00
57563;PMS7003;43400;45.926;6.724;2022-11-12T04:10:45;5.25;3.50;3.00
57563;PMS7003;43400;45.926;6.724;2022-11-12T04:13:17;4.25;4.25;3.50
57563;PMS7003;43400;45.926;6.724;2022-11-12T04:15:49;6.75;6.75;5.75
57563;PMS7003;43400;45.926;6.724;2022-11-12T04:18:20;6.20;6.00;5.00
57563;PMS7003;43400;45.926;6.724;2022-11-12T04:20:52;6.00;5.00;3.00
57563;PMS7003;43400;45.926;6.724;2022-11-12T04:23:24;5.00;5.00;4.20
57563;PMS7003;43400;45.926;6.724;2022-11-12T04:25:55;5.20;3.40;3.00
57563;PMS7003;43400;45.926;6.724;2022-11-12T04:28:27;4.80;4.80;2.80
57563;PMS7003;43400;45.926;6.724;2022-11-12T04:30:59;5.00;5.00;3.40
57563;PMS7003;43400;45.926;6.724;2022-11-12T04:33:30;3.50;3.50;2.75
57563;PMS7003;43400;45.926;6.724;2022-11-12T04:36:02;4.00;4.00;3.60
57563;PMS7003;43400;45.926;6.724;2022-11-12T04:38:33;5.00;5.00;3.50
57563;PMS7003;43400;45.926;6.724;2022-11-12T04:41:06;5.00;5.00;3.60
57563;PMS7003;43400;45.926;6.724;2022-11-12T04:43:38;4.75;4.75;3.50
57563;PMS7003;43400;45.926;6.724;2022-11-12T04:46:09;4.75;4.75;2.75
57563;PMS7003;43400;45.926;6.724;2022-11-12T04:48:41;4.00;4.00;2.00
57563;PMS7003;43400;45.926;6.724;2022-11-12T04:51:13;4.00;4.00;4.00
57563;PMS7003;43400;45.926;6.724;2022-11-12T04:53:44;3.60;3.60;3.60
57563;PMS7003;43400;45.926;6.724;2022-11-12T04:56:16;2.00;2.00;2.00
57563;PMS7003;43400;45.926;6.724;2022-11-12T04:58:47;2.00;2.00;1.00
57563;PMS7003;43400;45.926;6.724;2022-11-12T05:01:19;2.00;2.00;2.00
57563;PMS7003;43400;45.926;6.724;2022-11-12T05:03:51;8.00;8.00;5.00
57563;PMS7003;43400;45.926;6.724;2022-11-12T05:06:22;4.00;4.00;4.00
57563;PMS7003;43400;45.926;6.724;2022-11-12T05:08:54;2.00;2.00;2.00
57563;PMS7003;43400;45.926;6.724;2022-11-12T05:11:25;3.60;3.60;2.80
57563;PMS7003;43400;45.926;6.724;2022-11-12T05:13:57;4.00;4.00;2.00
57563;PMS7003;43400;45.926;6.724;2022-11-12T05:16:29;4.00;4.00;2.00
57563;PMS7003;43400;45.926;6.724;2022-11-12T05:19:00;6.00;6.00;5.00
57563;PMS7003;43400;45.926;6.724;2022-11-12T05:21:32;5.00;5.00;4.75
57563;PMS7003;43400;45.926;6.724;2022-11-12T05:24:04;6.50;6.50;5.75
57563;PMS7003;43400;45.926;6.724;2022-11-12T05:26:36;6.40;5.60;4.60
57563;PMS7003;43400;45.926;6.724;2022-11-12T05:29:07;5.00;5.00;5.00
57563;PMS7003;43400;45.926;6.724;2022-11-12T05:31:39;5.50;5.00;5.00
57563;PMS7003;43400;45.926;6.724;2022-11-12T05:34:10;7.00;6.00;5.00
57563;PMS7003;43400;45.926;6.724;2022-11-12T05:36:42;6.00;6.00;5.00
57563;PMS7003;43400;45.926;6.724;2022-11-12T05:39:14;5.80;5.80;5.00
57563;PMS7003;43400;45.926;6.724;2022-11-12T05:41:46;5.00;5.00;4.50
57563;PMS7003;43400;45.926;6.724;2022-11-12T05:44:17;4.00;4.00;4.00
57563;PMS7003;43400;45.926;6.724;2022-11-12T05:46:49;6.00;6.00;5.00
57563;PMS7003;43400;45.926;6.724;2022-11-12T05:49:21;8.00;5.00;4.00
57563;PMS7003;43400;45.926;6.724;2022-11-12T05:51:52;5.00;5.00;4.00
57563;PMS7003;43400;45.926;6.724;2022-11-12T05:54:24;5.60;5.60;4.20
57563;PMS7003;43400;45.926;6.724;2022-11-12T05:56:56;5.00;5.00;5.00
57563;PMS7003;43400;45.926;6.724;2022-11-12T05:59:27;6.00;6.00;5.00
57563;PMS7003;43400;45.926;6.724;2022-11-12T06:01:59;6.80;6.80;6.00
57563;PMS7003;43400;45.926;6.724;2022-11-12T06:04:30;8.00;6.00;5.60
57563;PMS7003;43400;45.926;6.724;2022-11-12T06:07:02;10.00;8.00;6.00
57563;PMS7003;43400;45.926;6.724;2022-11-12T06:09:34;10.50;9.00;6.50
57563;PMS7003;43400;45.926;6.724;2022-11-12T06:12:05;9.00;8.00;6.00
57563;PMS7003;43400;45.926;6.724;2022-11-12T06:14:37;5.00;5.00;5.00
57563;PMS7003;43400;45.926;6.724;2022-11-12T06:17:08;5.00;5.00;4.00
57563;PMS7003;43400;45.926;6.724;2022-11-12T06:19:40;5.00;5.00;4.25
57563;PMS7003;43400;45.926;6.724;2022-11-12T06:22:11;4.60;4.60;4.00
57563;PMS7003;43400;45.926;6.724;2022-11-12T06:24:43;4.00;4.00;3.50
57563;PMS7003;43400;45.926;6.724;2022-11-12T06:27:14;4.00;4.00;4.00
57563;PMS7003;43400;45.926;6.724;2022-11-12T06:29:46;4.00;4.00;2.00
57563;PMS7003;43400;45.926;6.724;2022-11-12T06:32:18;2.00;2.00;2.00
57563;PMS7003;43400;45.926;6.724;2022-11-12T06:34:49;2.00;2.00;2.00
57563;PMS7003;43400;45.926;6.724;2022-11-12T06:37:21;2.00;2.00;2.00
57563;PMS7003;43400;45.926;6.724;2022-11-12T06:39:52;2.00;2.00;2.00
57563;PMS7003;43400;45.926;6.724;2022-11-12T06:42:24;6.00;5.00;3.00
57563;PMS7003;43400;45.926;6.724;2022-11-12T06:44:56;2.00;2.00;2.00
57563;PMS7003;43400;45.926;6.724;2022-11-12T06:47:27;3.00;3.00;2.00
57563;PMS7003;43400;45.926;6.724;2022-11-12T06:49:59;4.50;4.50;4.00
57563;PMS7003;43400;45.926;6.724;2022-11-12T06:52:31;5.00;5.00;4.00
57563;PMS7003;43400;45.926;6.724;2022-11-12T06:55:02;4.00;3.20;2.40
57563;PMS7003;43400;45.926;6.724;2022-11-12T06:57:34;1.40;1.40;1.40
57563;PMS7003;43400;45.926;6.724;2022-11-12T07:00:06;8.00;4.40;4.20
57563;PMS7003;43400;45.926;6.724;2022-11-12T07:02:38;6.00;5.00;4.00
57563;PMS7003;43400;45.926;6.724;2022-11-12T07:05:10;5.00;4.20;4.00
57563;PMS7003;43400;45.926;6.724;2022-11-12T07:07:41;6.50;5.25;4.00
57563;PMS7003;43400;45.926;6.724;2022-11-12T07:10:13;5.25;5.25;4.00
57563;PMS7003;43400;45.926;6.724;2022-11-12T07:12:45;4.60;4.60;3.00
57563;PMS7003;43400;45.926;6.724;2022-11-12T07:15:16;3.00;3.00;2.25
57563;PMS7003;43400;45.926;6.724;2022-11-12T07:17:48;5.00;3.50;3.00
57563;PMS7003;43400;45.926;6.724;2022-11-12T07:20:19;5.20;5.20;3.40
57563;PMS7003;43400;45.926;6.724;2022-11-12T07:22:51;3.00;3.00;3.00
57563;PMS7003;43400;45.926;6.724;2022-11-12T07:25:22;5.20;4.20;3.00
57563;PMS7003;43400;45.926;6.724;2022-11-12T07:27:54;14.25;14.00;13.00
57563;PMS7003;43400;45.926;6.724;2022-11-12T07:30:25;10.00;10.00;9.00
57563;PMS7003;43400;45.926;6.724;2022-11-12T07:32:57;9.00;7.00;5.00
57563;PMS7003;43400;45.926;6.724;2022-11-12T07:35:28;6.00;6.00;5.00
57563;PMS7003;43400;45.926;6.724;2022-11-12T07:38:00;6.00;6.00;5.75
57563;PMS7003;43400;45.926;6.724;2022-11-12T07:40:31;6.00;6.00;5.33
57563;PMS7003;43400;45.926;6.724;2022-11-12T07:43:03;10.00;10.00;9.00
57563;PMS7003;43400;45.926;6.724;2022-11-12T07:45:34;8.20;8.20;6.60
57563;PMS7003;43400;45.926;6.724;2022-11-12T07:48:06;9.75;9.75;7.00
57563;PMS7003;43400;45.926;6.724;2022-11-12T07:50:38;9.75;9.75;8.00
57563;PMS7003;43400;45.926;6.724;2022-11-12T07:53:09;9.00;7.50;6.00
57563;PMS7003;43400;45.926;6.724;2022-11-12T07:55:41;9.00;7.50;6.00
57563;PMS7003;43400;45.926;6.724;2022-11-12T07:58:12;13.20;13.20;10.00
57563;PMS7003;43400;45.926;6.724;2022-11-12T08:00:44;18.60;17.20;13.60
57563;PMS7003;43400;45.926;6.724;2022-11-12T08:03:16;37.00;36.00;26.75
57563;PMS7003;43400;45.926;6.724;2022-11-12T08:05:48;31.00;30.75;26.00
57563;PMS7003;43400;45.926;6.724;2022-11-12T08:08:19;36.75;35.00;25.00
57563;PMS7003;43400;45.926;6.724;2022-11-12T08:10:55;19.00;19.00;15.00
57563;PMS7003;43400;45.926;6.724;2022-11-12T08:13:27;16.40;16.40;12.00
57563;PMS7003;43400;45.926;6.724;2022-11-12T08:15:59;15.00;15.00;12.40
57563;PMS7003;43400;45.926;6.724;2022-11-12T08:18:30;15.60;15.60;12.40
57563;PMS7003;43400;45.926;6.724;2022-11-12T08:21:02;16.80;15.80;12.00
57563;PMS7003;43400;45.926;6.724;2022-11-12T08:23:35;19.50;19.50;15.00
57563;PMS7003;43400;45.926;6.724;2022-11-12T08:26:08;14.20;14.20;10.00
57563;PMS7003;43400;45.926;6.724;2022-11-12T08:28:42;12.00;11.50;8.00
57563;PMS7003;43400;45.926;6.724;2022-11-12T08:31:15;13.60;13.60;11.20
57563;PMS7003;43400;45.926;6.724;2022-11-12T08:33:48;12.00;12.00;10.00
57563;PMS7003;43400;45.926;6.724;2022-11-12T08:36:20;12.80;12.80;10.40
57563;PMS7003;43400;45.926;6.724;2022-11-12T08:38:52;18.33;16.67;12.00
57563;PMS7003;43400;45.926;6.724;2022-11-12T08:41:23;16.00;16.00;11.25
57563;PMS7003;43400;45.926;6.724;2022-11-12T08:43:54;15.00;14.00;10.00
57563;PMS7003;43400;45.926;6.724;2022-11-12T08:46:26;19.00;17.50;14.00
57563;PMS7003;43400;45.926;6.724;2022-11-12T08:48:58;32.50;32.50;23.50
57563;PMS7003;43400;45.926;6.724;2022-11-12T08:51:29;27.25;25.25;20.00
57563;PMS7003;43400;45.926;6.724;2022-11-12T08:54:02;15.25;15.25;11.00
57563;PMS7003;43400;45.926;6.724;2022-11-12T08:56:34;12.25;11.00;8.00
57563;PMS7003;43400;45.926;6.724;2022-11-12T08:59:06;10.60;10.60;8.40
57563;PMS7003;43400;45.926;6.724;2022-11-12T09:01:37;12.50;11.00;9.50
57563;PMS7003;43400;45.926;6.724;2022-11-12T09:04:09;12.80;12.80;10.40
57563;PMS7003;43400;45.926;6.724;2022-11-12T09:06:40;18.80;17.00;12.60
57563;PMS7003;43400;45.926;6.724;2022-11-12T09:09:12;14.00;13.20;11.60
57563;PMS7003;43400;45.926;6.724;2022-11-12T09:11:44;12.00;11.40;8.40
57563;PMS7003;43400;45.926;6.724;2022-11-12T09:14:15;10.60;8.00;7.40
57563;PMS7003;43400;45.926;6.724;2022-11-12T09:16:47;10.60;9.40;7.00
57563;PMS7003;43400;45.926;6.724;2022-11-12T09:19:18;9.00;9.00;7.00
57563;PMS7003;43400;45.926;6.724;2022-11-12T09:21:50;6.00;6.00;4.80
57563;PMS7003;43400;45.926;6.724;2022-11-12T09:24:22;12.00;12.00;9.00
57563;PMS7003;43400;45.926;6.724;2022-11-12T09:26:54;17.50;16.50;10.00
57563;PMS7003;43400;45.926;6.724;2022-11-12T09:29:25;11.00;11.00;8.00
57563;PMS7003;43400;45.926;6.724;2022-11-12T09:31:57;11.80;11.20;8.20
57563;PMS7003;43400;45.926;6.724;2022-11-12T09:34:29;8.75;7.75;7.00
57563;PMS7003;43400;45.926;6.724;2022-11-12T09:37:00;16.00;14.40;11.80
57563;PMS7003;43400;45.926;6.724;2022-11-12T09:39:32;13.20;12.20;10.40
57563;PMS7003;43400;45.926;6.724;2022-11-12T09:42:07;10.00;10.00;9.00
57563;PMS7003;43400;45.926;6.724;2022-11-12T09:44:43;11.50;11.50;8.75
57563;PMS7003;43400;45.926;6.724;2022-11-12T09:47:26;12.50;11.00;8.50
57563;PMS7003;43400;45.926;6.724;2022-11-12T09:53:03;6.00;6.00;4.00
57563;PMS7003;43400;45.926;6.724;2022-11-12T09:55:43;7.00;5.50;4.00
57563;PMS7003;43400;45.926;6.724;2022-11-12T09:58:18;9.00;9.00;8.00
57563;PMS7003;43400;45.926;6.724;2022-11-12T10:04:03;8.75;7.25;7.00
57563;PMS7003;43400;45.926;6.724;2022-11-12T10:15:46;5.00;5.00;4.25
57563;PMS7003;43400;45.926;6.724;2022-11-12T10:21:20;5.00;5.00;5.00
57563;PMS7003;43400;45.926;6.724;2022-11-12T10:24:05;6.00;6.00;5.00
57563;PMS7003;43400;45.926;6.724;2022-11-12T10:26:39;6.20;6.00;5.00
57563;PMS7003;43400;45.926;6.724;2022-11-12T10:32:01;5.50;4.50;4.50
57563;PMS7003;43400;45.926;6.724;2022-11-12T10:34:33;5.40;5.40;5.00
57563;PMS7003;43400;45.926;6.724;2022-11-12T10:37:05;5.00;5.00;4.00
57563;PMS7003;43400;45.926;6.724;2022-11-12T10:39:43;5.00;5.00;4.00
57563;PMS7003;43400;45.926;6.724;2022-11-12T10:42:16;4.75;4.75;3.75
57563;PMS7003;43400;45.926;6.724;2022-11-12T10:44:49;4.00;4.00;3.00
57563;PMS7003;43400;45.926;6.724;2022-11-12T10:50:09;4.00;4.00;4.00
57563;PMS7003;43400;45.926;6.724;2022-11-12T10:52:52;3.80;3.80;3.60
57563;PMS7003;43400;45.926;6.724;2022-11-12T10:55:27;3.25;3.25;2.50
57563;PMS7003;43400;45.926;6.724;2022-11-12T11:00:54;5.00;5.00;4.67
57563;PMS7003;43400;45.926;6.724;2022-11-12T11:03:59;11.80;11.80;10.00
57563;PMS7003;43400;45.926;6.724;2022-11-12T11:06:31;4.00;4.00;4.00
57563;PMS7003;43400;45.926;6.724;2022-11-12T11:11:50;5.00;5.00;4.80
57563;PMS7003;43400;45.926;6.724;2022-11-12T11:14:32;5.50;5.50;5.00
57563;PMS7003;43400;45.926;6.724;2022-11-12T11:17:05;6.50;6.50;5.75
57563;PMS7003;43400;45.926;6.724;2022-11-12T11:19:46;5.00;5.00;5.00
57563;PMS7003;43400;45.926;6.724;2022-11-12T11:23:01;6.00;6.00;5.60
57563;PMS7003;43400;45.926;6.724;2022-11-12T11:36:51;4.00;4.00;3.20
57563;PMS7003;43400;45.926;6.724;2022-11-12T11:45:20;4.00;4.00;4.00
57563;PMS7003;43400;45.926;6.724;2022-11-12T11:56:42;5.67;5.00;5.00
57563;PMS7003;43400;45.926;6.724;2022-11-12T11:59:32;4.60;4.60;4.00
57563;PMS7003;43400;45.926;6.724;2022-11-12T12:08:04;13.25;13.25;10.75
57563;PMS7003;43400;45.926;6.724;2022-11-12T12:13:35;6.20;6.20;5.60
57563;PMS7003;43400;45.926;6.724;2022-11-12T12:21:33;2.80;2.80;2.60
57563;PMS7003;43400;45.926;6.724;2022-11-12T12:26:49;4.25;4.25;4.00
57563;PMS7003;43400;45.926;6.724;2022-11-12T12:30:02;6.60;6.00;4.00
57563;PMS7003;43400;45.926;6.724;2022-11-12T12:32:42;6.00;6.00;5.00
57563;PMS7003;43400;45.926;6.724;2022-11-12T12:35:30;6.00;6.00;5.20
57563;PMS7003;43400;45.926;6.724;2022-11-12T12:38:36;5.00;5.00;4.00
57563;PMS7003;43400;45.926;6.724;2022-11-12T12:44:13;6.20;6.20;4.00
57563;PMS7003;43400;45.926;6.724;2022-11-12T12:46:45;4.00;4.00;3.00
57563;PMS7003;43400;45.926;6.724;2022-11-12T12:49:27;6.00;5.00;4.00
57563;PMS7003;43400;45.926;6.724;2022-11-12T12:52:02;5.20;5.20;5.00
57563;PMS7003;43400;45.926;6.724;2022-11-12T13:00:26;6.75;6.75;6.75
57563;PMS7003;43400;45.926;6.724;2022-11-12T13:03:03;4.40;3.80;3.00
57563;PMS7003;43400;45.926;6.724;2022-11-12T13:05:36;7.00;7.00;6.00
57563;PMS7003;43400;45.926;6.724;2022-11-12T13:08:09;4.25;4.00;3.75
57563;PMS7003;43400;45.926;6.724;2022-11-12T13:10:49;2.50;2.50;2.00
57563;PMS7003;43400;45.926;6.724;2022-11-12T13:13:28;6.00;5.00;4.00
57563;PMS7003;43400;45.926;6.724;2022-11-12T13:16:02;5.80;5.80;4.00
57563;PMS7003;43400;45.926;6.724;2022-11-12T13:21:18;5.00;5.00;4.60
57563;PMS7003;43400;45.926;6.724;2022-11-12T13:26:36;5.25;5.25;5.00
57563;PMS7003;43400;45.926;6.724;2022-11-12T13:29:51;4.80;4.80;4.00
57563;PMS7003;43400;45.926;6.724;2022-11-12T13:35:34;9.00;9.00;7.50
57563;PMS7003;43400;45.926;6.724;2022-11-12T13:38:10;10.50;10.50;7.50
57563;PMS7003;43400;45.926;6.724;2022-11-12T13:51:38;5.00;5.00;5.00
57563;PMS7003;43400;45.926;6.724;2022-11-12T13:54:35;4.20;4.20;4.00
57563;PMS7003;43400;45.926;6.724;2022-11-12T13:57:20;5.00;5.00;4.00
57563;PMS7003;43400;45.926;6.724;2022-11-12T14:05:32;5.00;5.00;4.00
57563;PMS7003;43400;45.926;6.724;2022-11-12T14:21:30;4.75;4.00;3.75
57563;PMS7003;43400;45.926;6.724;2022-11-12T14:24:02;8.80;8.20;5.60
57563;PMS7003;43400;45.926;6.724;2022-11-12T14:29:16;4.00;4.00;3.25
57563;PMS7003;43400;45.926;6.724;2022-11-12T14:31:57;6.00;6.00;5.00
57563;PMS7003;43400;45.926;6.724;2022-11-12T14:34:32;5.00;5.00;4.00
57563;PMS7003;43400;45.926;6.724;2022-11-12T14:37:04;12.00;11.00;8.00
57563;PMS7003;43400;45.926;6.724;2022-11-12T14:39:35;5.00;5.00;4.00
57563;PMS7003;43400;45.926;6.724;2022-11-12T14:42:11;7.00;7.00;5.00
57563;PMS7003;43400;45.926;6.724;2022-11-12T14:44:45;8.00;7.50;5.00
57563;PMS7003;43400;45.926;6.724;2022-11-12T14:47:16;5.25;4.25;4.00
57563;PMS7003;43400;45.926;6.724;2022-11-12T14:49:48;4.40;4.00;3.80
57563;PMS7003;43400;45.926;6.724;2022-11-12T14:52:21;3.75;3.75;3.00
57563;PMS7003;43400;45.926;6.724;2022-11-12T14:55:20;6.00;5.00;4.00
57563;PMS7003;43400;45.926;6.724;2022-11-12T14:57:55;5.00;5.00;4.00
57563;PMS7003;43400;45.926;6.724;2022-11-12T15:03:01;5.00;5.00;4.75
57563;PMS7003;43400;45.926;6.724;2022-11-12T15:05:34;6.00;4.00;3.60
57563;PMS7003;43400;45.926;6.724;2022-11-12T15:08:27;5.00;5.00;4.00
57563;PMS7003;43400;45.926;6.724;2022-11-12T15:14:20;5.00;5.00;5.00
57563;PMS7003;43400;45.926;6.724;2022-11-12T15:16:53;4.00;4.00;3.00
57563;PMS7003;43400;45.926;6.724;2022-11-12T15:19:26;5.00;5.00;4.00
57563;PMS7003;43400;45.926;6.724;2022-11-12T15:21:59;7.20;6.60;4.80
57563;PMS7003;43400;45.926;6.724;2022-11-12T15:24:33;7.00;7.00;5.00
57563;PMS7003;43400;45.926;6.724;2022-11-12T15:30:15;4.00;4.00;3.00
57563;PMS7003;43400;45.926;6.724;2022-11-12T15:32:47;6.20;5.00;4.00
57563;PMS7003;43400;45.926;6.724;2022-11-12T15:37:59;7.00;7.00;7.00
57563;PMS7003;43400;45.926;6.724;2022-11-12T15:40:39;8.20;8.00;7.00
57563;PMS7003;43400;45.926;6.724;2022-11-12T15:43:12;14.25;11.25;9.25
57563;PMS7003;43400;45.926;6.724;2022-11-12T15:45:47;9.60;9.60;7.80
57563;PMS7003;43400;45.926;6.724;2022-11-12T15:48:20;10.00;10.00;8.00
57563;PMS7003;43400;45.926;6.724;2022-11-12T15:50:53;10.00;9.00;7.00
57563;PMS7003;43400;45.926;6.724;2022-11-12T15:53:25;11.00;9.00;7.25
57563;PMS7003;43400;45.926;6.724;2022-11-12T15:55:57;8.00;8.00;7.00
57563;PMS7003;43400;45.926;6.724;2022-11-12T15:58:32;9.00;8.25;5.00
57563;PMS7003;43400;45.926;6.724;2022-11-12T16:01:05;10.25;10.25;8.00
57563;PMS7003;43400;45.926;6.724;2022-11-12T16:03:37;9.67;9.67;7.00
57563;PMS7003;43400;45.926;6.724;2022-11-12T16:06:09;10.00;9.00;7.50
57563;PMS7003;43400;45.926;6.724;2022-11-12T16:08:42;7.00;7.00;4.00
57563;PMS7003;43400;45.926;6.724;2022-11-12T16:11:13;14.60;13.60;10.60
57563;PMS7003;43400;45.926;6.724;2022-11-12T16:13:45;8.00;8.00;7.00
57563;PMS7003;43400;45.926;6.724;2022-11-12T16:16:16;15.75;15.75;11.00
57563;PMS7003;43400;45.926;6.724;2022-11-12T16:18:48;13.25;11.50;9.25
57563;PMS7003;43400;45.926;6.724;2022-11-12T16:21:20;20.80;20.00;14.00
57563;PMS7003;43400;45.926;6.724;2022-11-12T16:23:51;18.00;18.00;14.25
57563;PMS7003;43400;45.926;6.724;2022-11-12T16:26:25;18.50;18.50;14.00
57563;PMS7003;43400;45.926;6.724;2022-11-12T16:29:00;16.75;16.25;14.00
57563;PMS7003;43400;45.926;6.724;2022-11-12T16:31:32;16.75;16.50;11.50
57563;PMS7003;43400;45.926;6.724;2022-11-12T16:34:03;17.50;16.75;14.00
57563;PMS7003;43400;45.926;6.724;2022-11-12T16:36:35;15.67;14.67;11.00
57563;PMS7003;43400;45.926;6.724;2022-11-12T16:39:08;17.40;16.00;13.20
57563;PMS7003;43400;45.926;6.724;2022-11-12T16:41:43;18.00;18.00;13.50
57563;PMS7003;43400;45.926;6.724;2022-11-12T16:44:14;19.40;18.40;15.00
57563;PMS7003;43400;45.926;6.724;2022-11-12T16:46:46;18.75;18.75;13.00
57563;PMS7003;43400;45.926;6.724;2022-11-12T16:49:18;18.80;18.80;14.40
57563;PMS7003;43400;45.926;6.724;2022-11-12T16:51:49;21.25;18.25;14.00
57563;PMS7003;43400;45.926;6.724;2022-11-12T16:54:21;15.25;15.25;13.00
57563;PMS7003;43400;45.926;6.724;2022-11-12T16:56:52;22.00;20.60;15.20
57563;PMS7003;43400;45.926;6.724;2022-11-12T16:59:24;23.00;22.20;15.40
57563;PMS7003;43400;45.926;6.724;2022-11-12T17:01:56;21.20;20.80;15.20